sensor_id;sensor_type;location;lat;lon;timestamp;P1;durP1;ratioP1;P2;durP2;ratioP2
17947;SDS011;9099;47.958;11.366;2022-12-07T00:01:23;11.57;;;8.45;;
17947;SDS011;9099;47.958;11.366;2022-12-07T00:03:51;9.27;;;7.72;;
17947;SDS011;9099;47.958;11.366;2022-12-07T00:06:22;9.68;;;7.50;;
17947;SDS011;9099;47.958;11.366;2022-12-07T00:08:50;9.38;;;7.22;;
17947;SDS011;9099;47.958;11.366;2022-12-07T00:11:17;10.27;;;7.57;;
17947;SDS011;9099;47.958;11.366;2022-12-07T00:13:45;10.80;;;8.07;;
17947;SDS011;9099;47.958;11.366;2022-12-07T00:16:13;10.43;;;8.40;;
17947;SDS011;9099;47.958;11.366;2022-12-07T00:18:43;11.45;;;8.88;;
17947;SDS011;9099;47.958;11.366;2022-12-07T00:21:12;13.15;;;9.38;;
17947;SDS011;9099;47.958;11.366;2022-12-07T00:23:40;10.65;;;8.05;;
17947;SDS011;9099;47.958;11.366;2022-12-07T00:26:10;11.10;;;8.13;;
17947;SDS011;9099;47.958;11.366;2022-12-07T00:28:39;11.93;;;8.43;;
17947;SDS011;9099;47.958;11.366;2022-12-07T00:31:06;9.90;;;8.23;;
17947;SDS011;9099;47.958;11.366;2022-12-07T00:33:35;11.77;;;9.15;;
17947;SDS011;9099;47.958;11.366;2022-12-07T00:36:03;11.57;;;9.43;;
17947;SDS011;9099;47.958;11.366;2022-12-07T00:38:33;10.80;;;9.15;;
17947;SDS011;9099;47.958;11.366;2022-12-07T00:41:02;10.88;;;9.30;;
17947;SDS011;9099;47.958;11.366;2022-12-07T00:43:32;12.70;;;9.48;;
17947;SDS011;9099;47.958;11.366;2022-12-07T00:45:59;11.93;;;9.10;;
17947;SDS011;9099;47.958;11.366;2022-12-07T00:48:26;11.88;;;8.65;;
17947;SDS011;9099;47.958;11.366;2022-12-07T00:50:53;10.50;;;8.93;;
17947;SDS011;9099;47.958;11.366;2022-12-07T00:53:19;12.85;;;8.73;;
17947;SDS011;9099;47.958;11.366;2022-12-07T00:55:46;12.85;;;9.10;;
17947;SDS011;9099;47.958;11.366;2022-12-07T00:58:13;11.52;;;8.55;;
17947;SDS011;9099;47.958;11.366;2022-12-07T01:00:42;13.57;;;9.50;;
17947;SDS011;9099;47.958;11.366;2022-12-07T01:03:10;10.77;;;8.40;;
17947;SDS011;9099;47.958;11.366;2022-12-07T01:05:39;11.10;;;8.45;;
17947;SDS011;9099;47.958;11.366;2022-12-07T01:08:06;11.18;;;8.77;;
17947;SDS011;9099;47.958;11.366;2022-12-07T01:10:33;13.50;;;9.23;;
17947;SDS011;9099;47.958;11.366;2022-12-07T01:13:00;13.23;;;8.80;;
17947;SDS011;9099;47.958;11.366;2022-12-07T01:15:26;10.30;;;8.15;;
17947;SDS011;9099;47.958;11.366;2022-12-07T01:17:55;9.82;;;7.55;;
17947;SDS011;9099;47.958;11.366;2022-12-07T01:20:22;11.88;;;8.63;;
17947;SDS011;9099;47.958;11.366;2022-12-07T01:22:48;11.57;;;8.23;;
17947;SDS011;9099;47.958;11.366;2022-12-07T01:25:15;12.68;;;9.27;;
17947;SDS011;9099;47.958;11.366;2022-12-07T01:27:42;11.68;;;8.82;;
17947;SDS011;9099;47.958;11.366;2022-12-07T01:30:10;12.63;;;8.53;;
17947;SDS011;9099;47.958;11.366;2022-12-07T01:32:39;12.10;;;8.35;;
17947;SDS011;9099;47.958;11.366;2022-12-07T01:35:08;11.90;;;9.20;;
17947;SDS011;9099;47.958;11.366;2022-12-07T01:37:35;11.57;;;8.40;;
17947;SDS011;9099;47.958;11.366;2022-12-07T01:40:02;13.98;;;9.13;;
17947;SDS011;9099;47.958;11.366;2022-12-07T01:42:30;12.23;;;8.13;;
17947;SDS011;9099;47.958;11.366;2022-12-07T01:48:11;8.75;;;7.55;;
17947;SDS011;9099;47.958;11.366;2022-12-07T01:50:42;13.05;;;8.68;;
17947;SDS011;9099;47.958;11.366;2022-12-07T01:53:11;11.50;;;8.40;;
17947;SDS011;9099;47.958;11.366;2022-12-07T01:55:40;8.90;;;7.50;;
17947;SDS011;9099;47.958;11.366;2022-12-07T01:58:10;11.65;;;8.88;;
17947;SDS011;9099;47.958;11.366;2022-12-07T02:00:38;12.80;;;8.93;;
17947;SDS011;9099;47.958;11.366;2022-12-07T02:03:06;11.50;;;8.50;;
17947;SDS011;9099;47.958;11.366;2022-12-07T02:05:37;11.18;;;8.07;;
17947;SDS011;9099;47.958;11.366;2022-12-07T02:08:08;9.90;;;7.75;;
17947;SDS011;9099;47.958;11.366;2022-12-07T02:10:36;10.10;;;7.97;;
17947;SDS011;9099;47.958;11.366;2022-12-07T02:13:04;10.57;;;8.27;;
17947;SDS011;9099;47.958;11.366;2022-12-07T02:15:38;12.93;;;8.82;;
17947;SDS011;9099;47.958;11.366;2022-12-07T02:18:16;11.30;;;8.48;;
17947;SDS011;9099;47.958;11.366;2022-12-07T02:20:50;12.90;;;8.35;;
17947;SDS011;9099;47.958;11.366;2022-12-07T02:23:39;10.15;;;8.00;;
17947;SDS011;9099;47.958;11.366;2022-12-07T02:29:18;9.73;;;7.75;;
17947;SDS011;9099;47.958;11.366;2022-12-07T02:31:50;10.50;;;8.30;;
17947;SDS011;9099;47.958;11.366;2022-12-07T02:34:25;10.00;;;8.10;;
17947;SDS011;9099;47.958;11.366;2022-12-07T02:37:00;10.55;;;8.25;;
17947;SDS011;9099;47.958;11.366;2022-12-07T02:39:31;9.97;;;8.20;;
17947;SDS011;9099;47.958;11.366;2022-12-07T02:42:07;11.57;;;8.00;;
17947;SDS011;9099;47.958;11.366;2022-12-07T02:44:42;9.18;;;7.72;;
17947;SDS011;9099;47.958;11.366;2022-12-07T02:47:12;9.57;;;7.80;;
17947;SDS011;9099;47.958;11.366;2022-12-07T02:49:41;10.90;;;8.00;;
17947;SDS011;9099;47.958;11.366;2022-12-07T02:52:09;10.90;;;8.43;;
17947;SDS011;9099;47.958;11.366;2022-12-07T02:54:36;8.52;;;7.63;;
17947;SDS011;9099;47.958;11.366;2022-12-07T02:57:05;11.05;;;8.00;;
17947;SDS011;9099;47.958;11.366;2022-12-07T02:59:44;9.67;;;7.87;;
17947;SDS011;9099;47.958;11.366;2022-12-07T03:02:25;11.32;;;7.68;;
17947;SDS011;9099;47.958;11.366;2022-12-07T03:05:01;11.15;;;7.80;;
17947;SDS011;9099;47.958;11.366;2022-12-07T03:07:39;10.30;;;7.88;;
17947;SDS011;9099;47.958;11.366;2022-12-07T03:10:17;8.90;;;7.68;;
17947;SDS011;9099;47.958;11.366;2022-12-07T03:12:51;10.27;;;7.85;;
17947;SDS011;9099;47.958;11.366;2022-12-07T03:15:29;10.38;;;7.97;;
17947;SDS011;9099;47.958;11.366;2022-12-07T03:17:59;9.45;;;7.60;;
17947;SDS011;9099;47.958;11.366;2022-12-07T03:20:29;11.50;;;8.70;;
17947;SDS011;9099;47.958;11.366;2022-12-07T03:22:58;9.90;;;7.80;;
17947;SDS011;9099;47.958;11.366;2022-12-07T03:25:26;10.07;;;7.72;;
17947;SDS011;9099;47.958;11.366;2022-12-07T03:27:54;10.40;;;7.93;;
17947;SDS011;9099;47.958;11.366;2022-12-07T03:30:24;11.27;;;8.32;;
17947;SDS011;9099;47.958;11.366;2022-12-07T03:32:58;9.00;;;7.47;;
17947;SDS011;9099;47.958;11.366;2022-12-07T03:35:31;8.70;;;7.05;;
17947;SDS011;9099;47.958;11.366;2022-12-07T03:38:04;11.30;;;8.60;;
17947;SDS011;9099;47.958;11.366;2022-12-07T03:40:37;8.85;;;7.25;;
17947;SDS011;9099;47.958;11.366;2022-12-07T03:43:10;10.07;;;7.88;;
17947;SDS011;9099;47.958;11.366;2022-12-07T03:45:38;7.65;;;6.90;;
17947;SDS011;9099;47.958;11.366;2022-12-07T03:48:09;8.52;;;7.13;;
17947;SDS011;9099;47.958;11.366;2022-12-07T03:50:46;8.48;;;7.57;;
17947;SDS011;9099;47.958;11.366;2022-12-07T03:53:18;9.35;;;7.50;;
17947;SDS011;9099;47.958;11.366;2022-12-07T03:55:48;8.68;;;7.05;;
17947;SDS011;9099;47.958;11.366;2022-12-07T03:58:17;9.43;;;7.70;;
17947;SDS011;9099;47.958;11.366;2022-12-07T04:00:46;10.05;;;7.25;;
17947;SDS011;9099;47.958;11.366;2022-12-07T04:03:16;8.38;;;6.88;;
17947;SDS011;9099;47.958;11.366;2022-12-07T04:05:43;7.85;;;7.05;;
17947;SDS011;9099;47.958;11.366;2022-12-07T04:08:10;9.55;;;7.60;;
17947;SDS011;9099;47.958;11.366;2022-12-07T04:10:37;9.43;;;7.30;;
17947;SDS011;9099;47.958;11.366;2022-12-07T04:13:04;9.13;;;7.43;;
17947;SDS011;9099;47.958;11.366;2022-12-07T04:15:31;7.97;;;7.18;;
17947;SDS011;9099;47.958;11.366;2022-12-07T04:17:58;11.90;;;8.40;;
17947;SDS011;9099;47.958;11.366;2022-12-07T04:20:26;8.65;;;7.07;;
17947;SDS011;9099;47.958;11.366;2022-12-07T04:22:53;7.65;;;6.93;;
17947;SDS011;9099;47.958;11.366;2022-12-07T04:25:20;7.95;;;6.57;;
17947;SDS011;9099;47.958;11.366;2022-12-07T04:27:47;10.25;;;8.38;;
17947;SDS011;9099;47.958;11.366;2022-12-07T04:30:14;7.37;;;6.43;;
17947;SDS011;9099;47.958;11.366;2022-12-07T04:32:40;8.95;;;7.40;;
17947;SDS011;9099;47.958;11.366;2022-12-07T04:35:08;8.82;;;6.85;;
17947;SDS011;9099;47.958;11.366;2022-12-07T04:37:36;8.70;;;6.83;;
17947;SDS011;9099;47.958;11.366;2022-12-07T04:40:05;9.13;;;6.80;;
17947;SDS011;9099;47.958;11.366;2022-12-07T04:42:33;9.25;;;7.50;;
17947;SDS011;9099;47.958;11.366;2022-12-07T04:45:00;9.20;;;7.67;;
17947;SDS011;9099;47.958;11.366;2022-12-07T04:47:27;11.43;;;9.15;;
17947;SDS011;9099;47.958;11.366;2022-12-07T04:49:54;10.87;;;7.73;;
17947;SDS011;9099;47.958;11.366;2022-12-07T04:52:20;7.55;;;6.47;;
17947;SDS011;9099;47.958;11.366;2022-12-07T04:54:49;9.43;;;7.65;;
17947;SDS011;9099;47.958;11.366;2022-12-07T04:57:15;9.07;;;7.53;;
17947;SDS011;9099;47.958;11.366;2022-12-07T04:59:42;7.28;;;6.57;;
17947;SDS011;9099;47.958;11.366;2022-12-07T05:02:09;7.35;;;6.65;;
17947;SDS011;9099;47.958;11.366;2022-12-07T05:04:36;6.93;;;6.22;;
17947;SDS011;9099;47.958;11.366;2022-12-07T05:07:03;7.13;;;6.43;;
17947;SDS011;9099;47.958;11.366;2022-12-07T05:09:29;7.20;;;6.50;;
17947;SDS011;9099;47.958;11.366;2022-12-07T05:11:58;6.80;;;6.20;;
17947;SDS011;9099;47.958;11.366;2022-12-07T05:14:25;6.30;;;5.70;;
17947;SDS011;9099;47.958;11.366;2022-12-07T05:16:51;6.20;;;5.60;;
17947;SDS011;9099;47.958;11.366;2022-12-07T05:19:19;6.23;;;5.63;;
17947;SDS011;9099;47.958;11.366;2022-12-07T05:21:46;6.97;;;6.30;;
17947;SDS011;9099;47.958;11.366;2022-12-07T05:24:14;5.73;;;5.23;;
17947;SDS011;9099;47.958;11.366;2022-12-07T05:26:42;5.83;;;5.33;;
17947;SDS011;9099;47.958;11.366;2022-12-07T05:29:12;5.60;;;5.10;;
17947;SDS011;9099;47.958;11.366;2022-12-07T05:31:40;5.70;;;5.10;;
17947;SDS011;9099;47.958;11.366;2022-12-07T05:34:07;5.93;;;5.43;;
17947;SDS011;9099;47.958;11.366;2022-12-07T05:36:34;6.23;;;5.63;;
17947;SDS011;9099;47.958;11.366;2022-12-07T05:39:02;6.40;;;5.80;;
17947;SDS011;9099;47.958;11.366;2022-12-07T05:41:29;5.95;;;5.40;;
17947;SDS011;9099;47.958;11.366;2022-12-07T05:44:14;5.37;;;4.97;;
17947;SDS011;9099;47.958;11.366;2022-12-07T05:46:41;5.40;;;5.00;;
17947;SDS011;9099;47.958;11.366;2022-12-07T05:49:08;6.27;;;5.67;;
17947;SDS011;9099;47.958;11.366;2022-12-07T05:51:35;5.90;;;5.40;;
17947;SDS011;9099;47.958;11.366;2022-12-07T05:54:03;5.90;;;5.40;;
17947;SDS011;9099;47.958;11.366;2022-12-07T05:56:30;5.27;;;4.77;;
17947;SDS011;9099;47.958;11.366;2022-12-07T05:58:57;6.17;;;5.57;;
17947;SDS011;9099;47.958;11.366;2022-12-07T06:01:42;6.07;;;5.53;;
17947;SDS011;9099;47.958;11.366;2022-12-07T06:04:09;5.83;;;4.90;;
17947;SDS011;9099;47.958;11.366;2022-12-07T06:06:36;5.93;;;5.43;;
17947;SDS011;9099;47.958;11.366;2022-12-07T06:09:03;5.57;;;5.07;;
17947;SDS011;9099;47.958;11.366;2022-12-07T06:11:30;5.77;;;5.10;;
17947;SDS011;9099;47.958;11.366;2022-12-07T06:14:14;6.63;;;5.30;;
17947;SDS011;9099;47.958;11.366;2022-12-07T06:16:42;5.63;;;5.20;;
17947;SDS011;9099;47.958;11.366;2022-12-07T06:19:10;5.93;;;5.33;;
17947;SDS011;9099;47.958;11.366;2022-12-07T06:21:37;6.03;;;5.43;;
17947;SDS011;9099;47.958;11.366;2022-12-07T06:24:04;8.07;;;6.83;;
17947;SDS011;9099;47.958;11.366;2022-12-07T06:26:31;6.50;;;5.37;;
17947;SDS011;9099;47.958;11.366;2022-12-07T06:28:58;5.97;;;5.37;;
17947;SDS011;9099;47.958;11.366;2022-12-07T06:31:25;5.67;;;5.17;;
17947;SDS011;9099;47.958;11.366;2022-12-07T06:33:57;6.00;;;5.40;;
17947;SDS011;9099;47.958;11.366;2022-12-07T06:36:24;5.20;;;4.80;;
17947;SDS011;9099;47.958;11.366;2022-12-07T06:38:51;5.30;;;4.90;;
17947;SDS011;9099;47.958;11.366;2022-12-07T06:41:19;5.65;;;5.15;;
17947;SDS011;9099;47.958;11.366;2022-12-07T06:43:46;5.13;;;4.73;;
17947;SDS011;9099;47.958;11.366;2022-12-07T06:46:13;5.38;;;4.88;;
17947;SDS011;9099;47.958;11.366;2022-12-07T06:48:40;5.65;;;5.15;;
17947;SDS011;9099;47.958;11.366;2022-12-07T06:51:08;6.40;;;5.80;;
17947;SDS011;9099;47.958;11.366;2022-12-07T06:53:36;5.53;;;5.03;;
17947;SDS011;9099;47.958;11.366;2022-12-07T06:56:03;6.13;;;5.63;;
17947;SDS011;9099;47.958;11.366;2022-12-07T06:58:31;6.40;;;5.80;;
17947;SDS011;9099;47.958;11.366;2022-12-07T07:00:57;6.80;;;6.20;;
17947;SDS011;9099;47.958;11.366;2022-12-07T07:03:24;7.50;;;6.85;;
17947;SDS011;9099;47.958;11.366;2022-12-07T07:05:51;7.30;;;6.60;;
17947;SDS011;9099;47.958;11.366;2022-12-07T07:08:19;7.53;;;6.73;;
17947;SDS011;9099;47.958;11.366;2022-12-07T07:10:46;7.28;;;6.57;;
17947;SDS011;9099;47.958;11.366;2022-12-07T07:13:13;6.85;;;6.25;;
17947;SDS011;9099;47.958;11.366;2022-12-07T07:15:40;7.20;;;6.60;;
17947;SDS011;9099;47.958;11.366;2022-12-07T07:18:07;6.90;;;6.30;;
17947;SDS011;9099;47.958;11.366;2022-12-07T07:20:34;7.10;;;6.47;;
17947;SDS011;9099;47.958;11.366;2022-12-07T07:23:01;6.53;;;5.93;;
17947;SDS011;9099;47.958;11.366;2022-12-07T07:25:29;7.00;;;6.05;;
17947;SDS011;9099;47.958;11.366;2022-12-07T07:27:56;6.80;;;6.20;;
17947;SDS011;9099;47.958;11.366;2022-12-07T07:30:22;6.53;;;5.83;;
17947;SDS011;9099;47.958;11.366;2022-12-07T07:32:50;5.75;;;5.25;;
17947;SDS011;9099;47.958;11.366;2022-12-07T07:35:16;6.00;;;5.40;;
17947;SDS011;9099;47.958;11.366;2022-12-07T07:37:44;5.67;;;5.17;;
17947;SDS011;9099;47.958;11.366;2022-12-07T07:40:11;6.15;;;5.65;;
17947;SDS011;9099;47.958;11.366;2022-12-07T07:42:39;6.38;;;5.78;;
17947;SDS011;9099;47.958;11.366;2022-12-07T07:45:06;5.65;;;5.15;;
17947;SDS011;9099;47.958;11.366;2022-12-07T07:47:34;6.00;;;5.50;;
17947;SDS011;9099;47.958;11.366;2022-12-07T07:50:00;6.47;;;5.87;;
17947;SDS011;9099;47.958;11.366;2022-12-07T07:52:27;5.53;;;5.13;;
17947;SDS011;9099;47.958;11.366;2022-12-07T07:54:54;5.63;;;5.23;;
17947;SDS011;9099;47.958;11.366;2022-12-07T07:57:21;6.05;;;5.55;;
17947;SDS011;9099;47.958;11.366;2022-12-07T07:59:49;5.83;;;5.33;;
17947;SDS011;9099;47.958;11.366;2022-12-07T08:02:16;6.53;;;5.97;;
17947;SDS011;9099;47.958;11.366;2022-12-07T08:04:45;6.90;;;6.30;;
17947;SDS011;9099;47.958;11.366;2022-12-07T08:07:12;6.67;;;6.03;;
17947;SDS011;9099;47.958;11.366;2022-12-07T08:09:40;6.70;;;6.10;;
17947;SDS011;9099;47.958;11.366;2022-12-07T08:12:07;6.67;;;6.07;;
17947;SDS011;9099;47.958;11.366;2022-12-07T08:14:34;7.87;;;7.17;;
17947;SDS011;9099;47.958;11.366;2022-12-07T08:17:03;7.43;;;6.73;;
17947;SDS011;9099;47.958;11.366;2022-12-07T08:19:29;8.40;;;7.43;;
17947;SDS011;9099;47.958;11.366;2022-12-07T08:21:56;10.20;;;9.10;;
17947;SDS011;9099;47.958;11.366;2022-12-07T08:24:23;8.70;;;7.80;;
17947;SDS011;9099;47.958;11.366;2022-12-07T08:26:51;11.60;;;9.03;;
17947;SDS011;9099;47.958;11.366;2022-12-07T08:29:18;11.07;;;8.67;;
17947;SDS011;9099;47.958;11.366;2022-12-07T08:31:45;10.77;;;9.65;;
17947;SDS011;9099;47.958;11.366;2022-12-07T08:34:14;12.05;;;10.07;;
17947;SDS011;9099;47.958;11.366;2022-12-07T08:36:41;10.43;;;8.80;;
17947;SDS011;9099;47.958;11.366;2022-12-07T08:39:08;10.30;;;8.55;;
17947;SDS011;9099;47.958;11.366;2022-12-07T08:41:35;9.70;;;8.57;;
17947;SDS011;9099;47.958;11.366;2022-12-07T08:44:02;11.60;;;8.90;;
17947;SDS011;9099;47.958;11.366;2022-12-07T08:46:30;9.73;;;8.73;;
17947;SDS011;9099;47.958;11.366;2022-12-07T08:49:03;8.98;;;7.93;;
17947;SDS011;9099;47.958;11.366;2022-12-07T08:51:34;9.02;;;8.13;;
17947;SDS011;9099;47.958;11.366;2022-12-07T08:54:03;9.10;;;8.20;;
17947;SDS011;9099;47.958;11.366;2022-12-07T08:56:33;7.78;;;7.13;;
17947;SDS011;9099;47.958;11.366;2022-12-07T08:59:00;7.53;;;6.82;;
17947;SDS011;9099;47.958;11.366;2022-12-07T09:01:27;8.13;;;7.43;;
17947;SDS011;9099;47.958;11.366;2022-12-07T09:03:54;9.05;;;8.23;;
17947;SDS011;9099;47.958;11.366;2022-12-07T09:06:21;9.05;;;8.13;;
17947;SDS011;9099;47.958;11.366;2022-12-07T09:08:50;8.32;;;7.53;;
17947;SDS011;9099;47.958;11.366;2022-12-07T09:11:22;8.00;;;7.23;;
17947;SDS011;9099;47.958;11.366;2022-12-07T09:13:49;8.18;;;7.38;;
17947;SDS011;9099;47.958;11.366;2022-12-07T09:16:16;7.68;;;6.97;;
17947;SDS011;9099;47.958;11.366;2022-12-07T09:18:42;7.70;;;7.00;;
17947;SDS011;9099;47.958;11.366;2022-12-07T09:21:09;8.38;;;7.50;;
17947;SDS011;9099;47.958;11.366;2022-12-07T09:23:36;14.25;;;6.95;;
17947;SDS011;9099;47.958;11.366;2022-12-07T09:26:04;7.40;;;6.70;;
17947;SDS011;9099;47.958;11.366;2022-12-07T09:28:31;7.45;;;6.65;;
17947;SDS011;9099;47.958;11.366;2022-12-07T09:30:58;7.75;;;7.05;;
17947;SDS011;9099;47.958;11.366;2022-12-07T09:33:26;7.63;;;6.93;;
17947;SDS011;9099;47.958;11.366;2022-12-07T09:35:52;8.88;;;7.63;;
17947;SDS011;9099;47.958;11.366;2022-12-07T09:38:19;9.27;;;8.30;;
17947;SDS011;9099;47.958;11.366;2022-12-07T09:40:46;9.97;;;8.63;;
17947;SDS011;9099;47.958;11.366;2022-12-07T09:43:16;10.25;;;9.18;;
17947;SDS011;9099;47.958;11.366;2022-12-07T09:45:45;10.55;;;9.05;;
17947;SDS011;9099;47.958;11.366;2022-12-07T09:48:16;9.95;;;8.63;;
17947;SDS011;9099;47.958;11.366;2022-12-07T09:50:46;10.47;;;9.33;;
17947;SDS011;9099;47.958;11.366;2022-12-07T09:53:16;8.77;;;7.88;;
17947;SDS011;9099;47.958;11.366;2022-12-07T09:55:46;11.10;;;9.07;;
17947;SDS011;9099;47.958;11.366;2022-12-07T09:58:17;11.63;;;9.90;;
17947;SDS011;9099;47.958;11.366;2022-12-07T10:00:48;10.33;;;9.00;;
17947;SDS011;9099;47.958;11.366;2022-12-07T10:03:15;10.20;;;9.13;;
17947;SDS011;9099;47.958;11.366;2022-12-07T10:05:43;9.13;;;8.23;;
17947;SDS011;9099;47.958;11.366;2022-12-07T10:08:12;9.45;;;8.48;;
17947;SDS011;9099;47.958;11.366;2022-12-07T10:10:40;10.40;;;9.30;;
17947;SDS011;9099;47.958;11.366;2022-12-07T10:13:08;8.88;;;7.97;;
17947;SDS011;9099;47.958;11.366;2022-12-07T10:15:46;8.55;;;7.70;;
17947;SDS011;9099;47.958;11.366;2022-12-07T10:18:17;9.83;;;8.83;;
17947;SDS011;9099;47.958;11.366;2022-12-07T10:20:46;8.90;;;8.00;;
17947;SDS011;9099;47.958;11.366;2022-12-07T10:23:14;9.00;;;8.10;;
17947;SDS011;9099;47.958;11.366;2022-12-07T10:25:44;8.70;;;7.83;;
17947;SDS011;9099;47.958;11.366;2022-12-07T10:28:13;9.82;;;8.65;;
17947;SDS011;9099;47.958;11.366;2022-12-07T10:30:47;8.85;;;7.95;;
17947;SDS011;9099;47.958;11.366;2022-12-07T10:33:29;8.20;;;7.40;;
17947;SDS011;9099;47.958;11.366;2022-12-07T10:35:58;8.90;;;7.72;;
17947;SDS011;9099;47.958;11.366;2022-12-07T10:38:26;7.20;;;6.50;;
17947;SDS011;9099;47.958;11.366;2022-12-07T10:41:02;7.90;;;6.93;;
17947;SDS011;9099;47.958;11.366;2022-12-07T10:43:30;7.20;;;6.50;;
17947;SDS011;9099;47.958;11.366;2022-12-07T10:46:06;7.70;;;7.00;;
17947;SDS011;9099;47.958;11.366;2022-12-07T10:48:48;8.05;;;6.65;;
17947;SDS011;9099;47.958;11.366;2022-12-07T10:51:26;6.95;;;6.35;;
17947;SDS011;9099;47.958;11.366;2022-12-07T10:54:02;7.05;;;6.38;;
17947;SDS011;9099;47.958;11.366;2022-12-07T10:56:43;7.07;;;6.37;;
17947;SDS011;9099;47.958;11.366;2022-12-07T10:59:41;6.77;;;6.13;;
17947;SDS011;9099;47.958;11.366;2022-12-07T11:02:23;7.10;;;6.47;;
17947;SDS011;9099;47.958;11.366;2022-12-07T11:05:01;6.30;;;5.70;;
17947;SDS011;9099;47.958;11.366;2022-12-07T11:07:39;6.53;;;5.93;;
17947;SDS011;9099;47.958;11.366;2022-12-07T11:10:15;5.55;;;5.13;;
17947;SDS011;9099;47.958;11.366;2022-12-07T11:12:55;6.43;;;5.93;;
17947;SDS011;9099;47.958;11.366;2022-12-07T11:15:33;6.95;;;6.35;;
17947;SDS011;9099;47.958;11.366;2022-12-07T11:18:11;7.47;;;6.78;;
17947;SDS011;9099;47.958;11.366;2022-12-07T11:20:49;6.95;;;6.35;;
17947;SDS011;9099;47.958;11.366;2022-12-07T11:23:23;7.15;;;6.45;;
17947;SDS011;9099;47.958;11.366;2022-12-07T11:25:59;8.13;;;7.38;;
17947;SDS011;9099;47.958;11.366;2022-12-07T11:28:39;6.88;;;6.25;;
17947;SDS011;9099;47.958;11.366;2022-12-07T11:31:18;6.95;;;6.35;;
17947;SDS011;9099;47.958;11.366;2022-12-07T11:33:55;7.20;;;6.60;;
17947;SDS011;9099;47.958;11.366;2022-12-07T11:36:31;8.38;;;7.55;;
17947;SDS011;9099;47.958;11.366;2022-12-07T11:39:04;7.53;;;6.80;;
17947;SDS011;9099;47.958;11.366;2022-12-07T11:41:35;8.27;;;7.40;;
17947;SDS011;9099;47.958;11.366;2022-12-07T11:44:06;8.95;;;7.97;;
17947;SDS011;9099;47.958;11.366;2022-12-07T11:46:43;8.23;;;7.43;;
17947;SDS011;9099;47.958;11.366;2022-12-07T11:49:15;9.02;;;8.13;;
17947;SDS011;9099;47.958;11.366;2022-12-07T11:51:52;9.15;;;8.23;;
17947;SDS011;9099;47.958;11.366;2022-12-07T11:54:23;9.13;;;8.18;;
17947;SDS011;9099;47.958;11.366;2022-12-07T11:56:55;7.88;;;7.18;;
17947;SDS011;9099;47.958;11.366;2022-12-07T11:59:27;8.88;;;7.97;;
17947;SDS011;9099;47.958;11.366;2022-12-07T12:01:58;8.48;;;7.68;;
17947;SDS011;9099;47.958;11.366;2022-12-07T12:04:39;7.95;;;7.22;;
17947;SDS011;9099;47.958;11.366;2022-12-07T12:07:14;9.05;;;8.02;;
17947;SDS011;9099;47.958;11.366;2022-12-07T12:09:47;7.88;;;7.18;;
17947;SDS011;9099;47.958;11.366;2022-12-07T12:12:31;8.38;;;7.68;;
17947;SDS011;9099;47.958;11.366;2022-12-07T12:15:16;8.77;;;7.70;;
17947;SDS011;9099;47.958;11.366;2022-12-07T12:18:05;7.93;;;7.22;;
17947;SDS011;9099;47.958;11.366;2022-12-07T12:20:57;7.32;;;6.72;;
17947;SDS011;9099;47.958;11.366;2022-12-07T12:23:30;7.82;;;7.13;;
17947;SDS011;9099;47.958;11.366;2022-12-07T12:26:03;8.98;;;7.40;;
17947;SDS011;9099;47.958;11.366;2022-12-07T12:28:34;7.40;;;6.63;;
17947;SDS011;9099;47.958;11.366;2022-12-07T12:31:05;7.63;;;6.93;;
17947;SDS011;9099;47.958;11.366;2022-12-07T12:33:35;7.57;;;6.95;;
17947;SDS011;9099;47.958;11.366;2022-12-07T12:39:13;9.73;;;7.78;;
17947;SDS011;9099;47.958;11.366;2022-12-07T12:41:51;8.85;;;8.05;;
17947;SDS011;9099;47.958;11.366;2022-12-07T12:44:41;7.30;;;6.60;;
17947;SDS011;9099;47.958;11.366;2022-12-07T12:50:25;8.50;;;7.65;;
17947;SDS011;9099;47.958;11.366;2022-12-07T12:55:48;9.73;;;8.10;;
17947;SDS011;9099;47.958;11.366;2022-12-07T12:58:33;9.35;;;7.68;;
17947;SDS011;9099;47.958;11.366;2022-12-07T13:04:17;8.52;;;7.72;;
17947;SDS011;9099;47.958;11.366;2022-12-07T13:07:10;10.23;;;7.03;;
17947;SDS011;9099;47.958;11.366;2022-12-07T13:09:41;7.88;;;7.18;;
17947;SDS011;9099;47.958;11.366;2022-12-07T13:12:12;8.50;;;7.65;;
17947;SDS011;9099;47.958;11.366;2022-12-07T13:14:52;8.02;;;7.32;;
17947;SDS011;9099;47.958;11.366;2022-12-07T13:23:27;6.72;;;6.13;;
17947;SDS011;9099;47.958;11.366;2022-12-07T13:26:01;6.40;;;5.80;;
17947;SDS011;9099;47.958;11.366;2022-12-07T13:28:39;7.35;;;6.65;;
17947;SDS011;9099;47.958;11.366;2022-12-07T13:31:11;7.78;;;6.22;;
17947;SDS011;9099;47.958;11.366;2022-12-07T13:33:49;7.57;;;6.63;;
17947;SDS011;9099;47.958;11.366;2022-12-07T13:36:19;9.00;;;7.50;;
17947;SDS011;9099;47.958;11.366;2022-12-07T13:38:49;7.30;;;6.60;;
17947;SDS011;9099;47.958;11.366;2022-12-07T13:41:20;7.85;;;7.05;;
17947;SDS011;9099;47.958;11.366;2022-12-07T13:43:49;7.80;;;6.95;;
17947;SDS011;9099;47.958;11.366;2022-12-07T13:46:26;8.75;;;7.03;;
17947;SDS011;9099;47.958;11.366;2022-12-07T13:49:01;7.13;;;6.43;;
17947;SDS011;9099;47.958;11.366;2022-12-07T13:51:29;7.10;;;6.45;;
17947;SDS011;9099;47.958;11.366;2022-12-07T13:54:06;7.07;;;6.38;;
17947;SDS011;9099;47.958;11.366;2022-12-07T13:56:38;7.97;;;7.18;;
17947;SDS011;9099;47.958;11.366;2022-12-07T13:59:07;7.65;;;7.00;;
17947;SDS011;9099;47.958;11.366;2022-12-07T14:01:39;7.00;;;6.30;;
17947;SDS011;9099;47.958;11.366;2022-12-07T14:04:29;7.65;;;6.88;;
17947;SDS011;9099;47.958;11.366;2022-12-07T14:06:58;14.80;;;6.78;;
17947;SDS011;9099;47.958;11.366;2022-12-07T14:09:27;7.30;;;6.60;;
17947;SDS011;9099;47.958;11.366;2022-12-07T14:11:57;7.35;;;6.55;;
17947;SDS011;9099;47.958;11.366;2022-12-07T14:14:25;7.15;;;6.45;;
17947;SDS011;9099;47.958;11.366;2022-12-07T14:16:59;7.22;;;6.53;;
17947;SDS011;9099;47.958;11.366;2022-12-07T14:19:44;7.80;;;7.00;;
17947;SDS011;9099;47.958;11.366;2022-12-07T14:22:26;7.05;;;6.35;;
17947;SDS011;9099;47.958;11.366;2022-12-07T14:24:58;6.35;;;5.85;;
17947;SDS011;9099;47.958;11.366;2022-12-07T14:27:30;8.50;;;7.60;;
17947;SDS011;9099;47.958;11.366;2022-12-07T14:29:59;8.20;;;7.40;;
17947;SDS011;9099;47.958;11.366;2022-12-07T14:32:26;6.45;;;5.85;;
17947;SDS011;9099;47.958;11.366;2022-12-07T14:34:55;7.07;;;6.47;;
17947;SDS011;9099;47.958;11.366;2022-12-07T14:37:23;6.72;;;6.13;;
17947;SDS011;9099;47.958;11.366;2022-12-07T14:39:50;7.47;;;6.05;;
17947;SDS011;9099;47.958;11.366;2022-12-07T14:42:17;6.88;;;6.10;;
17947;SDS011;9099;47.958;11.366;2022-12-07T14:44:47;6.50;;;5.90;;
17947;SDS011;9099;47.958;11.366;2022-12-07T14:47:14;8.23;;;6.72;;
17947;SDS011;9099;47.958;11.366;2022-12-07T14:49:40;6.57;;;5.97;;
17947;SDS011;9099;47.958;11.366;2022-12-07T14:52:09;8.32;;;6.38;;
17947;SDS011;9099;47.958;11.366;2022-12-07T14:54:41;6.65;;;6.05;;
17947;SDS011;9099;47.958;11.366;2022-12-07T14:57:09;7.00;;;6.38;;
17947;SDS011;9099;47.958;11.366;2022-12-07T14:59:36;7.30;;;6.60;;
17947;SDS011;9099;47.958;11.366;2022-12-07T15:02:05;9.48;;;8.68;;
17947;SDS011;9099;47.958;11.366;2022-12-07T15:04:32;7.30;;;6.60;;
17947;SDS011;9099;47.958;11.366;2022-12-07T15:07:00;11.95;;;7.28;;
17947;SDS011;9099;47.958;11.366;2022-12-07T15:09:29;6.82;;;6.22;;
17947;SDS011;9099;47.958;11.366;2022-12-07T15:11:55;7.50;;;6.78;;
17947;SDS011;9099;47.958;11.366;2022-12-07T15:14:22;7.15;;;6.45;;
17947;SDS011;9099;47.958;11.366;2022-12-07T15:16:49;9.17;;;7.17;;
17947;SDS011;9099;47.958;11.366;2022-12-07T15:19:18;6.43;;;5.82;;
17947;SDS011;9099;47.958;11.366;2022-12-07T15:21:48;6.75;;;5.97;;
17947;SDS011;9099;47.958;11.366;2022-12-07T15:24:15;7.10;;;6.45;;
17947;SDS011;9099;47.958;11.366;2022-12-07T15:26:42;8.00;;;7.20;;